Jump to content


FEDEX FLIGHT FX201 FLOWN ON 06-17-2017 BY CAPTAIN TYLER HANUS

Pilot StatsCaptain Tyler Hanus (LDP525) • 171.1 total hours • 28 total flights [View Logbook]
FLIGHT DETAILS
StatusReceived and approved on 2017-06-16 at 20:06:21
Origin AirportMemphis Intl (KMEM) • Memphis, Tennessee, United States (341 feet MSL)
Filed Flight PlanFLIGHT PLANNER OFFLINE
Destination AirportCharles-de-Gaulle (LFPG) • Paris, France (392 feet MSL)
Alternate AirportLe Bourget (LFPB) • Paris, France (218 feet MSL)
AirlineFedEx
AircraftBoeing 777-200 Freighter (77F / B777-200F)
FS Aircraft UsedPMDG 777-FS2 FedEx Express
Cruising AltitudeFL350
Distance Flown3,950 nautical miles
Cargo Onboard90,400 lbs (66.61% full)
DEPARTURE DETAILS
Time Out09:31:43
Taxi Data604,192 lbs total with 222,432 lbs of fuel onboard
Takeoff Data09:52:45 (21 minutes after leaving gate/ramp) • 602,765 lbs total • 5° pitch at 165 knots
Departure METARKMEM 161254Z 18006KT 10SM FEW018 SCT250 26/24 A2988 RMK AO2 SLP113 T02560239
ARRIVAL DETAILS
Landing Data01:48:25 • 467,599 lbs total • 4° pitch doing 130 knots at a rate of -276.82 feet/minute with 84,785 lbs of fuel onboard
Time In01:58:22 (10 minutes after landing)
Ramp Weight466,545 lbs total
Total Fuel Used137,647 lbs
Total Block Time08:56:25 (8.9 hours) while 31 minutes were spent on the ground
Arrival METARLFPG 162330Z 36004KT 340V140 CAVOK 15/10 Q1028 NOSIG
MISCELLANEOUS DETAILS
LiveDISPATCH Version4.8.3.1
FS Version
FSUIPC Version4.96
OS VersionWindows 7 32-bit
Screen Resolution1360 x 768
Pilot's CommentsNo Comments Reported
FLIGHT MAP